Time;durP1;ratioP1;P1;durP2;ratioP2;P2;SDS_P1;SDS_P2;PMS_P1;PMS_P2;Temp;Humidity;BMP_temperature;BMP_pressure;BME280_temperature;BME280_humidity;BME280_pressure;Samples;Min_cycle;Max_cycle;Signal;HPM_P1;HPM_P2
2023/08/10 00:01:43;;;;;;;3.13;2.65;;;;;;;18.14;100.00;97435.75;5044886;28;20056;-75
2023/08/10 00:04:08;;;;;;;3.38;2.60;;;;;;;18.13;100.00;97439.44;5020895;28;20029;-75
2023/08/10 00:06:34;;;;;;;8.35;2.90;;;;;;;18.16;100.00;97445.44;5021234;28;20452;-74
2023/08/10 00:09:00;;;;;;;4.32;2.70;;;;;;;18.11;100.00;97449.59;5038861;28;20028;-75
2023/08/10 00:11:26;;;;;;;7.95;3.00;;;;;;;18.06;100.00;97447.28;5024257;28;20061;-74
2023/08/10 00:13:51;;;;;;;6.57;2.97;;;;;;;18.10;100.00;97450.56;5030745;28;20033;-75
2023/08/10 00:16:17;;;;;;;3.55;2.85;;;;;;;18.03;100.00;97444.00;5030872;28;20021;-75
2023/08/10 00:18:42;;;;;;;3.42;2.70;;;;;;;18.03;100.00;97439.47;5028096;28;20045;-75
2023/08/10 00:21:08;;;;;;;7.65;3.22;;;;;;;18.10;100.00;97450.56;5047160;28;20032;-75
2023/08/10 00:23:33;;;;;;;3.25;2.58;;;;;;;18.12;100.00;97454.00;5041004;28;20484;-75
2023/08/10 00:25:59;;;;;;;4.18;2.80;;;;;;;18.06;100.00;97447.28;5042033;28;21663;-75
2023/08/10 00:28:24;;;;;;;4.90;2.78;;;;;;;18.04;100.00;97440.31;5049073;28;20357;-75
2023/08/10 00:30:50;;;;;;;4.18;3.10;;;;;;;17.95;100.00;97417.69;5024272;28;20040;-75
2023/08/10 00:33:15;;;;;;;5.90;3.40;;;;;;;18.07;100.00;97442.75;5016079;28;20037;-75
2023/08/10 00:35:41;;;;;;;5.13;2.80;;;;;;;17.98;100.00;97420.09;5043645;28;20039;-75
2023/08/10 00:38:06;;;;;;;5.82;2.83;;;;;;;18.03;100.00;97427.78;5030553;28;20112;-75
2023/08/10 00:40:32;;;;;;;3.30;2.63;;;;;;;18.02;100.00;97442.31;5014135;28;20052;-72
2023/08/10 00:43:00;;;;;;;3.78;2.80;;;;;;;17.90;100.00;97435.34;5028928;28;20371;-75
2023/08/10 00:45:27;;;;;;;3.08;2.63;;;;;;;17.97;100.00;97441.88;5042249;28;20021;-75
2023/08/10 00:47:53;;;;;;;5.68;3.20;;;;;;;18.01;100.00;97424.38;5041882;28;20097;-74
2023/08/10 00:50:19;;;;;;;6.22;2.85;;;;;;;18.10;100.00;97432.47;5030805;28;20493;-75
2023/08/10 00:52:44;;;;;;;3.80;2.72;;;;;;;18.07;100.00;97429.19;5033798;28;20060;-73
2023/08/10 00:55:10;;;;;;;5.80;3.22;;;;;;;18.10;100.00;97439.75;5046635;28;20464;-75
2023/08/10 00:57:36;;;;;;;3.65;2.50;;;;;;;18.21;100.00;97439.59;5028986;28;20025;-75
2023/08/10 01:00:05;;;;;;;3.47;2.50;;;;;;;18.26;100.00;97434.59;5034867;28;20029;-75
2023/08/10 01:02:30;;;;;;;3.00;2.70;;;;;;;18.15;100.00;97429.34;5048749;28;20025;-75
2023/08/10 01:04:56;;;;;;;2.70;2.47;;;;;;;18.21;100.00;97431.47;5040673;28;20039;-75
2023/08/10 01:07:46;;;;;;;5.97;2.90;;;;;;;18.19;100.00;97428.91;5028945;28;20088;-75
2023/08/10 01:10:53;;;;;;;9.13;6.05;;;;;;;18.14;100.00;97430.34;5032727;28;20033;-74
2023/08/10 01:13:43;;;;;;;7.38;3.45;;;;;;;17.98;100.00;97427.34;5022618;28;20028;-75
2023/08/10 01:16:09;;;;;;;5.20;3.17;;;;;;;17.86;100.00;97427.53;5040517;28;20037;-73
2023/08/10 01:18:35;;;;;;;5.43;3.22;;;;;;;17.83;100.00;97433.22;5046666;28;20029;-74
2023/08/10 01:21:03;;;;;;;5.68;3.30;;;;;;;17.74;100.00;97420.53;5020218;28;20024;-74
2023/08/10 01:23:35;;;;;;;4.80;2.97;;;;;;;17.75;100.00;97424.94;5011959;28;20018;-73
2023/08/10 01:26:01;;;;;;;5.43;2.80;;;;;;;17.70;100.00;97421.81;5036736;28;20135;-74
2023/08/10 01:28:27;;;;;;;7.90;2.70;;;;;;;17.63;100.00;97415.25;5028234;28;20036;-74
2023/08/10 01:30:53;;;;;;;5.63;2.70;;;;;;;17.69;100.00;97424.66;5018600;28;20415;-74
2023/08/10 01:33:19;;;;;;;4.60;3.05;;;;;;;17.79;100.00;97426.38;5046139;28;20013;-73
2023/08/10 01:35:45;;;;;;;4.72;3.00;;;;;;;17.81;100.00;97429.78;5025548;28;20029;-73
2023/08/10 01:38:10;;;;;;;4.25;3.05;;;;;;;17.88;100.00;97433.63;5023297;28;20507;-74
2023/08/10 01:40:39;;;;;;;5.10;2.80;;;;;;;17.94;100.00;97429.50;5013732;28;20404;-74
2023/08/10 01:43:05;;;;;;;4.82;2.70;;;;;;;17.90;100.00;97432.66;5028369;28;20086;-74
2023/08/10 01:45:30;;;;;;;3.55;2.85;;;;;;;17.81;100.00;97434.38;5039033;28;20024;-74
2023/08/10 01:48:04;;;;;;;4.38;3.00;;;;;;;17.72;100.00;97435.19;5036599;28;20033;-74
2023/08/10 01:50:33;;;;;;;5.22;3.40;;;;;;;17.67;100.00;97429.34;5022473;28;20033;-74
2023/08/10 01:53:30;;;;;;;4.80;2.92;;;;;;;17.71;100.00;97439.78;5039748;28;20428;-74
2023/08/10 01:55:55;;;;;;;4.00;3.38;;;;;;;17.81;100.00;97429.78;5022909;28;20049;-74
2023/08/10 01:58:21;;;;;;;3.95;3.15;;;;;;;17.74;100.00;97434.06;5021093;28;20029;-73
2023/08/10 02:00:47;;;;;;;9.40;3.67;;;;;;;17.77;100.00;97433.78;5042395;28;20472;-73
2023/08/10 02:03:12;;;;;;;5.93;3.92;;;;;;;17.82;100.00;97436.91;5041888;28;20135;-73
2023/08/10 02:05:38;;;;;;;5.13;3.38;;;;;;;17.84;100.00;97445.72;5011175;28;20041;-73
2023/08/10 02:08:04;;;;;;;3.85;3.30;;;;;;;17.87;100.00;97440.03;5011390;28;20028;-74
2023/08/10 02:10:29;;;;;;;8.48;3.45;;;;;;;17.84;100.00;97453.84;5021648;28;20492;-74
2023/08/10 02:12:55;;;;;;;4.80;3.58;;;;;;;17.78;100.00;97457.13;5025342;28;20124;-73
2023/08/10 02:15:21;;;;;;;39.67;24.73;;;;;;;17.74;100.00;97454.84;5020417;28;20132;-73
2023/08/10 02:17:46;;;;;;;8.50;4.25;;;;;;;17.82;100.00;97452.28;5047282;28;20173;-73
2023/08/10 02:20:12;;;;;;;6.35;3.58;;;;;;;17.80;100.00;97452.44;5044905;28;20029;-74
2023/08/10 02:22:41;;;;;;;6.65;3.20;;;;;;;17.83;100.00;97460.28;5030828;28;20096;-74
2023/08/10 02:25:07;;;;;;;11.52;7.18;;;;;;;17.83;100.00;97457.56;5015882;28;20021;-74
2023/08/10 02:27:33;;;;;;;10.13;5.80;;;;;;;17.85;100.00;97466.41;5038909;28;20100;-74
2023/08/10 02:29:58;;;;;;;3.80;3.40;;;;;;;17.78;100.00;97456.28;5043767;28;20499;-74
2023/08/10 02:32:24;;;;;;;5.47;3.65;;;;;;;17.64;100.00;97462.09;5035813;28;20048;-74
2023/08/10 02:34:50;;;;;;;8.10;3.55;;;;;;;17.55;100.00;97462.94;5044313;28;20039;-74
2023/08/10 02:37:15;;;;;;;5.50;4.00;;;;;;;17.59;100.00;97465.25;5019214;28;20116;-74
2023/08/10 02:39:41;;;;;;;3.78;3.13;;;;;;;17.54;100.00;97461.19;5027593;28;20093;-74
2023/08/10 02:42:06;;;;;;;4.72;3.00;;;;;;;17.51;100.00;97462.34;5043691;28;20037;-74
2023/08/10 02:44:32;;;;;;;4.38;3.22;;;;;;;17.52;100.00;97460.50;5034581;28;20029;-74
2023/08/10 02:46:57;;;;;;;5.72;2.90;;;;;;;17.60;100.00;97472.34;5029235;28;20037;-74
2023/08/10 02:49:24;;;;;;;12.05;3.28;;;;;;;17.61;100.00;97471.38;5033060;28;20497;-73
2023/08/10 02:51:49;;;;;;;3.70;3.05;;;;;;;17.40;100.00;97473.28;5038758;28;20120;-74
2023/08/10 02:54:15;;;;;;;7.30;3.75;;;;;;;17.49;100.00;97487.81;5017837;28;20461;-74
2023/08/10 02:56:40;;;;;;;4.57;3.10;;;;;;;17.57;100.00;97488.84;5028518;28;20033;-74
2023/08/10 02:59:06;;;;;;;5.85;3.17;;;;;;;17.63;100.00;97491.00;5018747;28;20033;-74
2023/08/10 03:01:31;;;;;;;6.75;3.13;;;;;;;17.66;100.00;97490.72;5025335;28;20029;-73
2023/08/10 03:03:57;;;;;;;3.30;2.95;;;;;;;17.60;100.00;97498.53;5038610;28;20063;-74
2023/08/10 03:06:22;;;;;;;7.10;3.28;;;;;;;17.61;100.00;97513.78;5049889;28;20040;-74
2023/08/10 03:08:48;;;;;;;4.85;2.97;;;;;;;17.61;100.00;97511.06;5043152;28;20481;-74
2023/08/10 03:11:13;;;;;;;5.13;3.08;;;;;;;17.63;100.00;97520.75;5035085;28;20089;-73
2023/08/10 03:13:39;;;;;;;3.72;3.38;;;;;;;17.58;100.00;97508.66;5035092;28;20116;-73
2023/08/10 03:16:04;;;;;;;9.40;5.07;;;;;;;17.61;100.00;97514.66;5026510;28;20041;-74
2023/08/10 03:18:30;;;;;;;5.10;3.22;;;;;;;17.65;100.00;97513.38;5026777;28;20190;-73
2023/08/10 03:20:55;;;;;;;3.45;3.13;;;;;;;17.78;100.00;97523.94;5034798;28;20021;-74
2023/08/10 03:23:21;;;;;;;5.80;4.32;;;;;;;17.83;100.00;97527.94;5014749;28;20052;-73
2023/08/10 03:25:46;;;;;;;6.60;4.68;;;;;;;17.80;100.00;97540.88;5038144;28;20024;-73
2023/08/10 03:28:12;;;;;;;17.20;4.15;;;;;;;17.87;100.00;97534.75;5029674;28;20052;-74
2023/08/10 03:30:37;;;;;;;9.15;3.67;;;;;;;17.93;100.00;97546.91;5031262;28;20049;-73
2023/08/10 03:33:03;;;;;;;7.68;3.70;;;;;;;17.90;100.00;97551.72;5028069;28;20408;-74
2023/08/10 03:35:28;;;;;;;42.45;9.35;;;;;;;17.91;100.00;97561.53;5041070;28;20494;-74
2023/08/10 03:37:54;;;;;;;7.85;4.18;;;;;;;18.00;100.00;97550.72;5035886;28;20037;-73
2023/08/10 03:40:19;;;;;;;5.93;3.38;;;;;;;18.02;100.00;97550.59;5013779;28;20396;-73
2023/08/10 03:42:45;;;;;;;9.93;3.90;;;;;;;18.07;100.00;97559.16;5039007;28;20105;-73
2023/08/10 03:45:10;;;;;;;7.28;3.15;;;;;;;18.12;100.00;97563.13;5012065;28;20405;-73
2023/08/10 03:47:36;;;;;;;21.52;6.43;;;;;;;18.13;100.00;97567.56;5041437;28;20029;-73
2023/08/10 03:50:02;;;;;;;9.10;3.38;;;;;;;18.19;100.00;97558.00;5041133;28;20036;-73
2023/08/10 03:52:27;;;;;;;3.28;2.85;;;;;;;18.21;100.00;97556.03;5036952;28;20029;-73
2023/08/10 03:54:53;;;;;;;7.60;3.20;;;;;;;18.17;100.00;97563.59;5038016;28;20365;-74
2023/08/10 03:57:18;;;;;;;10.70;3.67;;;;;;;18.18;100.00;97572.56;5024465;28;20032;-74
2023/08/10 03:59:44;;;;;;;7.20;3.08;;;;;;;18.11;100.00;97577.69;5034775;28;20029;-74
2023/08/10 04:02:09;;;;;;;5.00;2.92;;;;;;;18.03;100.00;97584.78;5039765;28;20085;-73
2023/08/10 04:04:35;;;;;;;8.40;3.88;;;;;;;17.98;100.00;97589.75;5037474;28;20499;-73
2023/08/10 04:07:00;;;;;;;6.68;3.38;;;;;;;18.03;100.00;97592.91;5022029;28;20029;-73
2023/08/10 04:09:26;;;;;;;4.38;3.35;;;;;;;18.00;100.00;97604.88;5032930;28;20025;-73
2023/08/10 04:11:51;;;;;;;10.82;4.95;;;;;;;18.05;100.00;97597.22;5042302;28;20098;-73
2023/08/10 04:14:17;;;;;;;17.05;9.90;;;;;;;18.13;100.00;97608.19;5029449;28;20026;-73
2023/08/10 04:16:42;;;;;;;12.68;6.60;;;;;;;18.14;100.00;97609.03;5037867;28;20086;-73
2023/08/10 04:19:08;;;;;;;5.38;4.20;;;;;;;18.24;100.00;97612.63;5030531;28;20499;-74
2023/08/10 04:21:33;;;;;;;6.47;3.90;;;;;;;18.29;100.00;97613.03;5049488;28;20113;-74
2023/08/10 04:23:59;;;;;;;6.55;4.93;;;;;;;18.29;100.00;97619.31;5049627;28;20132;-74
2023/08/10 04:26:24;;;;;;;9.07;5.35;;;;;;;18.29;100.00;97627.44;5046203;28;20025;-74
2023/08/10 04:28:50;;;;;;;7.13;4.88;;;;;;;18.26;100.00;97629.56;5027834;28;20095;-76
2023/08/10 04:31:21;;;;;;;11.27;5.25;;;;;;;18.28;100.00;97627.56;5038843;28;20507;-76
2023/08/10 04:33:57;;;;;;;7.43;3.72;;;;;;;18.23;100.00;97624.44;5044845;28;20498;-74
2023/08/10 04:36:25;;;;;;;4.03;2.60;;;;;;;17.84;100.00;97608.09;5022798;28;20038;-75
2023/08/10 04:38:51;;;;;;;5.68;3.42;;;;;;;17.78;100.00;97616.78;5018969;28;20037;-75
2023/08/10 04:41:21;;;;;;;10.75;4.65;;;;;;;17.76;100.00;97620.63;5024258;28;20115;-75
2023/08/10 04:43:47;;;;;;;10.20;4.95;;;;;;;17.73;100.00;97637.13;5019372;28;20041;-75
2023/08/10 04:46:14;;;;;;;11.02;4.50;;;;;;;17.66;100.00;97630.53;5029038;28;20108;-76
2023/08/10 04:48:46;;;;;;;17.70;4.80;;;;;;;17.70;100.00;97659.06;5017700;28;20025;-74
2023/08/10 04:51:14;;;;;;;5.83;4.00;;;;;;;17.59;100.00;97661.88;5040003;28;20021;-76
2023/08/10 04:53:42;;;;;;;5.93;3.78;;;;;;;17.47;100.00;97646.69;5012528;28;20735;-74
2023/08/10 04:56:08;;;;;;;6.05;4.15;;;;;;;17.54;100.00;97670.34;5046435;28;20029;-76
2023/08/10 04:58:33;;;;;;;4.75;3.10;;;;;;;17.40;100.00;97669.84;5064679;28;20025;-75
2023/08/10 05:00:59;;;;;;;5.60;2.92;;;;;;;17.33;100.00;97677.63;5048548;28;20464;-76
2023/08/10 05:03:27;;;;;;;5.18;3.28;;;;;;;17.34;100.00;97685.63;5037992;28;20517;-78
2023/08/10 05:05:53;;;;;;;5.15;3.20;;;;;;;17.37;100.00;97684.50;5035931;28;20037;-72
2023/08/10 05:08:18;;;;;;;4.60;3.33;;;;;;;17.41;100.00;97696.72;5047040;28;20029;-74
2023/08/10 05:10:47;;;;;;;5.10;3.28;;;;;;;17.46;100.00;97704.47;5048319;28;20487;-74
2023/08/10 05:13:12;;;;;;;4.75;3.30;;;;;;;17.44;100.00;97707.31;5031838;28;20037;-76
2023/08/10 05:15:38;;;;;;;4.70;3.20;;;;;;;17.49;100.00;97715.00;5048492;28;20031;-76
2023/08/10 05:18:03;;;;;;;4.75;3.10;;;;;;;17.46;100.00;97716.16;5033120;28;20051;-74
2023/08/10 05:20:29;;;;;;;5.65;3.60;;;;;;;17.46;100.00;97713.44;5031904;28;20140;-76
2023/08/10 05:22:56;;;;;;;6.70;3.80;;;;;;;17.52;100.00;97712.03;5031444;28;20115;-77
2023/08/10 05:25:24;;;;;;;7.50;4.20;;;;;;;17.63;100.00;97715.53;5048329;28;20025;-75
2023/08/10 05:27:50;;;;;;;5.30;3.88;;;;;;;17.63;100.00;97720.09;5032008;28;20100;-73
2023/08/10 05:30:16;;;;;;;17.38;5.85;;;;;;;17.68;100.00;97721.44;5048056;28;20497;-73
2023/08/10 05:32:44;;;;;;;8.38;4.65;;;;;;;17.63;100.00;97712.84;5037774;28;20039;-75
2023/08/10 05:35:10;;;;;;;24.67;7.75;;;;;;;17.69;100.00;97720.41;5018282;28;20067;-76
2023/08/10 05:37:38;;;;;;;7.45;4.18;;;;;;;17.59;100.00;97714.13;5031937;28;20037;-76
2023/08/10 05:40:09;;;;;;;7.03;3.85;;;;;;;17.58;100.00;97715.09;5040493;28;20021;-75
2023/08/10 05:42:39;;;;;;;7.32;3.15;;;;;;;17.53;100.00;97709.22;5039823;28;20021;-78
2023/08/10 05:45:09;;;;;;;0.05;0.05;;;;;;;17.45;100.00;97709.00;5041895;28;20025;-74
2023/08/10 05:47:35;;;;;;;0.65;0.25;;;;;;;17.44;100.00;97718.13;5022165;28;20029;-74
2023/08/10 05:50:02;;;;;;;12.18;0.57;;;;;;;17.37;100.00;97725.06;5024045;28;20032;-74
2023/08/10 05:52:28;;;;;;;1.85;0.45;;;;;;;17.28;100.00;97712.34;5047716;28;20111;-73
2023/08/10 05:55:14;;;;;;;0.70;0.32;;;;;;;17.19;100.00;97718.53;5056353;28;20101;-81
2023/08/10 05:57:43;;;;;;;0.85;0.52;;;;;;;17.17;100.00;97715.09;5047644;28;20085;-74
2023/08/10 06:00:12;;;;;;;1.30;0.52;;;;;;;17.23;100.00;97725.38;5047967;28;20468;-72
2023/08/10 06:02:38;;;;;;;0.65;0.40;;;;;;;17.24;100.00;97729.78;5031193;28;20032;-74
2023/08/10 06:05:06;;;;;;;0.20;0.20;;;;;;;17.25;100.00;97728.81;5047619;28;20029;-74
2023/08/10 06:07:34;;;;;;;1.30;0.47;;;;;;;17.29;100.00;97730.25;5047616;28;20486;-74
2023/08/10 06:10:00;;;;;;;2.28;1.02;;;;;;;17.28;100.00;97733.97;5046298;28;20025;-73
2023/08/10 06:12:26;;;;;;;0.85;0.60;;;;;;;17.31;100.00;97739.09;5040458;28;20036;-73
2023/08/10 06:14:51;;;;;;;2.92;1.15;;;;;;;17.35;100.00;97741.41;5027312;28;20036;-73
2023/08/10 06:17:17;;;;;;;0.73;0.73;;;;;;;17.38;100.00;97740.28;5027517;28;20030;-72
2023/08/10 06:19:50;;;;;;;1.58;1.05;;;;;;;17.40;100.00;97750.97;5010657;28;20485;-72
2023/08/10 06:22:15;;;;;;;0.43;0.40;;;;;;;17.32;100.00;97755.19;5027698;28;20511;-72
2023/08/10 06:24:41;;;;;;;1.05;0.65;;;;;;;17.33;100.00;97758.75;5028558;28;20080;-73
2023/08/10 06:27:07;;;;;;;0.22;0.22;;;;;;;17.29;100.00;97751.88;5011091;28;20032;-74
2023/08/10 06:29:32;;;;;;;0.17;0.17;;;;;;;17.26;100.00;97753.00;5027412;28;20045;-72
2023/08/10 06:31:58;;;;;;;1.25;1.00;;;;;;;17.17;100.00;97742.13;5027154;28;20813;-73
2023/08/10 06:34:23;;;;;;;1.95;1.35;;;;;;;17.16;100.00;97744.00;5010976;28;20018;-74
2023/08/10 06:36:58;;;;;;;3.45;2.10;;;;;;;17.19;100.00;97746.44;5028396;28;20067;-73
2023/08/10 06:39:24;;;;;;;0.63;0.63;;;;;;;17.22;100.00;97751.56;5028669;28;20060;-73
2023/08/10 06:41:49;;;;;;;0.57;0.57;;;;;;;17.11;100.00;97743.50;5010734;28;20065;-72
2023/08/10 06:44:15;;;;;;;3.60;0.55;;;;;;;17.20;100.00;97747.25;5028464;28;20029;-72
2023/08/10 06:46:41;;;;;;;0.43;0.40;;;;;;;17.19;100.00;97750.97;5035402;28;20039;-73
2023/08/10 06:49:07;;;;;;;1.75;0.73;;;;;;;17.26;100.00;97752.16;5048118;28;20029;-72
2023/08/10 06:51:33;;;;;;;16.98;1.38;;;;;;;17.13;100.00;97735.28;5030547;28;20025;-72
2023/08/10 06:53:59;;;;;;;0.30;0.30;;;;;;;17.16;100.00;97748.53;5046616;28;20033;-72
2023/08/10 06:56:24;;;;;;;1.15;0.52;;;;;;;17.13;100.00;97746.09;5048187;28;20093;-72
2023/08/10 06:58:51;;;;;;;0.28;0.17;;;;;;;17.15;100.00;97744.09;5047907;28;20028;-73
2023/08/10 07:01:17;;;;;;;0.98;0.88;;;;;;;17.19;100.00;97741.03;5030092;28;20020;-72
2023/08/10 07:03:43;;;;;;;0.98;0.63;;;;;;;17.22;100.00;97745.31;5030249;28;20104;-72
2023/08/10 07:06:08;;;;;;;0.98;0.55;;;;;;;17.24;100.00;97738.78;5027078;28;20029;-72
2023/08/10 07:08:34;;;;;;;3.83;1.23;;;;;;;17.30;100.00;97742.78;5010410;28;20033;-71
2023/08/10 07:11:03;;;;;;;2.47;1.15;;;;;;;17.40;100.00;97751.84;5026434;28;20034;-73
2023/08/10 07:13:29;;;;;;;7.38;0.77;;;;;;;17.48;100.00;97756.56;5010469;28;20465;-72
2023/08/10 07:15:55;;;;;;;0.10;0.10;;;;;;;17.66;100.00;97750.44;5026492;28;20499;-73
2023/08/10 07:18:20;;;;;;;0.40;0.30;;;;;;;17.74;100.00;97750.66;5026624;28;20057;-72
2023/08/10 07:20:46;;;;;;;0.57;0.57;;;;;;;17.75;100.00;97749.66;5026145;28;20093;-72
2023/08/10 07:23:11;;;;;;;0.57;0.57;;;;;;;17.87;100.00;97753.16;5026511;28;20036;-72
2023/08/10 07:25:37;;;;;;;0.85;0.60;;;;;;;17.80;100.00;97758.25;5026608;28;20029;-73
2023/08/10 07:28:05;;;;;;;0.68;0.50;;;;;;;17.95;100.00;97755.16;5010206;28;20416;-72
2023/08/10 07:30:31;;;;;;;0.50;0.38;;;;;;;17.90;100.00;97755.59;5038382;28;20041;-72
2023/08/10 07:32:58;;;;;;;0.60;0.60;;;;;;;17.82;100.00;97767.06;5030059;28;20468;-72
2023/08/10 07:35:23;;;;;;;0.85;0.60;;;;;;;17.90;100.00;97749.31;5029443;28;20059;-72
2023/08/10 07:37:49;;;;;;;0.40;0.30;;;;;;;17.91;100.00;97751.00;5046248;28;20032;-73
2023/08/10 07:40:15;;;;;;;0.73;0.57;;;;;;;18.06;100.00;97755.91;5047390;28;20116;-73
2023/08/10 07:42:40;;;;;;;0.65;0.30;;;;;;;18.16;100.00;97750.53;5029790;28;20475;-72
2023/08/10 07:45:09;;;;;;;1.27;0.98;;;;;;;18.17;100.00;97757.69;5045979;28;20109;-73
2023/08/10 07:47:36;;;;;;;0.52;0.35;;;;;;;18.21;100.00;97757.25;5035118;28;20033;-73
2023/08/10 07:50:02;;;;;;;0.35;0.22;;;;;;;18.22;100.00;97758.13;5026352;28;20132;-73
2023/08/10 07:52:28;;;;;;;1.27;0.88;;;;;;;18.21;100.00;97751.00;5009557;28;20500;-72
2023/08/10 07:54:54;;;;;;;0.28;0.28;;;;;;;18.49;100.00;97760.22;5041058;28;20044;-73
2023/08/10 07:57:19;;;;;;;0.50;0.50;;;;;;;18.52;100.00;97749.97;5045884;28;20037;-73
2023/08/10 07:59:44;;;;;;;0.45;0.40;;;;;;;18.76;100.00;97745.03;5042281;28;20021;-73
2023/08/10 08:02:10;;;;;;;1.00;0.68;;;;;;;18.76;100.00;97745.03;5026188;28;20103;-73
2023/08/10 08:04:35;;;;;;;0.45;0.38;;;;;;;18.75;100.00;97746.03;5042704;27;20036;-73
2023/08/10 08:07:01;;;;;;;0.60;0.60;;;;;;;18.90;100.00;97746.47;5009789;28;20444;-73
2023/08/10 08:09:26;;;;;;;0.10;0.10;;;;;;;19.12;100.00;97745.34;5025831;28;20030;-73
2023/08/10 08:11:52;;;;;;;0.22;0.22;;;;;;;19.31;100.00;97739.91;5039044;28;20025;-72
2023/08/10 08:14:17;;;;;;;1.20;0.43;;;;;;;19.43;100.00;97736.94;5045863;28;20025;-73
2023/08/10 08:16:43;;;;;;;1.05;0.95;;;;;;;19.56;100.00;97731.19;5045241;28;20170;-73
2023/08/10 08:19:08;;;;;;;0.25;0.25;;;;;;;19.58;100.00;97722.88;5045882;28;20028;-72
2023/08/10 08:21:35;;;;;;;0.55;0.55;;;;;;;19.71;100.00;97734.28;5028980;28;20021;-72
2023/08/10 08:24:01;;;;;;;0.35;0.22;;;;;;;19.90;100.00;97737.78;5045952;28;20081;-73
2023/08/10 08:26:27;;;;;;;1.13;0.60;;;;;;;19.96;100.00;97731.75;5045166;28;20059;-73
2023/08/10 08:28:53;;;;;;;0.10;0.10;;;;;;;20.41;100.00;97731.03;5025783;28;20049;-74
2023/08/10 08:31:19;;;;;;;0.38;0.20;;;;;;;20.55;100.00;97731.34;5025635;28;20064;-73
2023/08/10 08:33:45;;;;;;;0.68;0.65;;;;;;;20.71;100.00;97733.41;5011302;28;20167;-73
2023/08/10 08:36:10;;;;;;;0.47;0.32;;;;;;;20.80;100.00;97740.63;5029407;28;20029;-73
2023/08/10 08:38:37;;;;;;;0.08;0.08;;;;;;;20.76;100.00;97752.84;5028926;28;20040;-73
2023/08/10 08:41:05;;;;;;;0.47;0.32;;;;;;;20.72;100.00;97739.69;5029156;28;20366;-73
2023/08/10 08:43:31;;;;;;;0.20;0.20;;;;;;;20.45;100.00;97741.47;5028785;28;20026;-73
2023/08/10 08:46:01;;;;;;;0.30;0.30;;;;;;;20.69;100.00;97751.75;5040025;28;20063;-73
2023/08/10 08:48:27;;;;;;;0.22;0.22;;;;;;;20.52;100.00;97747.09;5048538;28;20028;-73
2023/08/10 08:50:53;;;;;;;0.13;0.13;;;;;;;20.80;100.00;97751.50;5048328;28;20522;-73
2023/08/10 08:53:19;;;;;;;0.00;0.00;;;;;;;20.66;100.00;97752.06;5048848;28;20021;-74
2023/08/10 08:55:46;;;;;;;0.30;0.30;;;;;;;20.53;100.00;97762.44;5048563;28;20403;-73
2023/08/10 08:58:15;;;;;;;0.22;0.22;;;;;;;20.42;100.00;97762.63;5048706;28;20025;-73
2023/08/10 09:00:41;;;;;;;0.10;0.10;;;;;;;20.39;100.00;97762.94;5022527;28;20025;-74
2023/08/10 09:03:07;;;;;;;0.15;0.15;;;;;;;20.43;100.00;97758.91;5008928;28;20030;-73
2023/08/10 09:05:33;;;;;;;0.50;0.50;;;;;;;20.16;100.00;97761.56;5012066;28;20607;-74
2023/08/10 09:07:58;;;;;;;0.10;0.10;;;;;;;20.03;100.00;97765.47;5028530;28;20028;-73
2023/08/10 09:10:24;;;;;;;0.00;0.00;;;;;;;19.99;100.00;97766.75;5029898;28;20053;-74
2023/08/10 09:12:49;;;;;;;0.32;0.32;;;;;;;19.87;100.00;97761.69;5011857;28;20026;-73
2023/08/10 09:15:18;;;;;;;0.17;0.17;;;;;;;19.70;100.00;97771.44;5034130;28;20025;-73
2023/08/10 09:17:46;;;;;;;0.30;0.25;;;;;;;19.75;100.00;97766.41;5038747;28;20029;-74
2023/08/10 09:20:22;;;;;;;0.68;0.68;;;;;;;19.59;100.00;97768.91;5011889;28;20085;-73
2023/08/10 09:22:50;;;;;;;1.05;0.40;;;;;;;19.51;100.00;97766.03;5028168;28;20029;-73
2023/08/10 09:25:16;;;;;;;1.33;0.77;;;;;;;19.39;100.00;97764.44;5011802;28;20515;-74
2023/08/10 09:27:41;;;;;;;0.28;0.28;;;;;;;19.34;100.00;97764.91;5045547;28;20033;-73
2023/08/10 09:30:08;;;;;;;0.35;0.35;;;;;;;19.35;100.00;97769.28;5031281;28;20424;-73
2023/08/10 09:32:34;;;;;;;0.25;0.25;;;;;;;19.33;100.00;97770.44;5048263;28;20029;-74
2023/08/10 09:35:00;;;;;;;1.23;0.55;;;;;;;19.33;100.00;97776.72;5028539;28;20021;-73
2023/08/10 09:37:26;;;;;;;0.15;0.10;;;;;;;19.41;100.00;97785.03;5028380;28;20078;-75
2023/08/10 09:40:01;;;;;;;0.75;0.35;;;;;;;19.33;100.00;97770.44;5028070;28;20037;-73
2023/08/10 09:42:30;;;;;;;0.47;0.38;;;;;;;19.43;100.00;97779.47;5011761;28;20059;-73
2023/08/10 09:44:58;;;;;;;0.43;0.40;;;;;;;19.38;100.00;97779.88;5018133;28;20034;-74
2023/08/10 09:47:24;;;;;;;1.95;1.50;;;;;;;19.69;100.00;97785.13;5011745;28;20453;-74
2023/08/10 09:49:57;;;;;;;1.25;1.00;;;;;;;19.79;100.00;97784.13;5027846;28;20033;-74
2023/08/10 09:52:24;;;;;;;0.30;0.20;;;;;;;19.77;100.00;97772.56;5032484;28;20448;-74
2023/08/10 09:54:50;;;;;;;0.43;0.43;;;;;;;20.05;100.00;97769.91;5031163;28;20386;-74
2023/08/10 09:57:18;;;;;;;1.55;0.52;;;;;;;20.26;100.00;97767.84;5031081;28;20078;-73
2023/08/10 09:59:45;;;;;;;1.08;0.43;;;;;;;20.35;100.00;97778.69;5047890;28;20057;-74
2023/08/10 10:02:11;;;;;;;0.10;0.10;;;;;;;20.13;100.00;97770.00;5031054;28;20028;-75
2023/08/10 10:04:40;;;;;;;0.17;0.15;;;;;;;20.21;100.00;97768.25;5047500;28;20017;-73
2023/08/10 10:07:07;;;;;;;0.30;0.22;;;;;;;20.29;100.00;97768.41;5029123;28;20089;-73
2023/08/10 10:09:39;;;;;;;0.08;0.08;;;;;;;20.49;100.00;97775.47;5027722;28;20496;-74
2023/08/10 10:12:10;;;;;;;0.10;0.10;;;;;;;20.66;100.00;97760.22;5011263;28;20021;-74
2023/08/10 10:14:39;;;;;;;0.88;0.80;;;;;;;20.74;100.00;97762.16;5027650;28;20029;-74
2023/08/10 10:17:06;;;;;;;0.75;0.40;;;;;;;20.80;100.00;97769.69;5038085;28;20415;-72
2023/08/10 10:19:32;;;;;;;0.63;0.20;;;;;;;20.95;100.00;97771.72;5047259;28;20048;-73
2023/08/10 10:21:59;;;;;;;2.15;0.80;;;;;;;20.82;100.00;97754.09;5047112;28;20560;-73
2023/08/10 10:24:29;;;;;;;0.08;0.08;;;;;;;20.33;100.00;97769.81;5030899;28;20421;-73
2023/08/10 10:27:13;;;;;;;0.00;0.00;;;;;;;20.52;100.00;97774.28;5030705;28;20498;-74
2023/08/10 10:29:48;;;;;;;0.43;0.25;;;;;;;20.43;100.00;97769.75;5047127;28;20148;-73
2023/08/10 10:32:18;;;;;;;0.35;0.20;;;;;;;20.23;100.00;97766.28;5048120;28;20057;-73
2023/08/10 10:34:45;;;;;;;0.10;0.10;;;;;;;20.36;100.00;97763.25;5047260;28;20029;-73
2023/08/10 10:37:15;;;;;;;3.13;0.60;;;;;;;20.31;100.00;97770.97;5030420;28;20040;-73
2023/08/10 10:39:54;;;;;;;1.90;0.30;;;;;;;20.33;100.00;97769.81;5047017;28;20058;-73
2023/08/10 10:42:20;;;;;;;0.25;0.25;;;;;;;20.63;100.00;97748.78;5028172;28;20048;-73
2023/08/10 10:45:14;;;;;;;0.10;0.10;;;;;;;20.75;100.00;97756.56;5010984;28;20037;-73
2023/08/10 10:47:46;;;;;;;0.13;0.13;;;;;;;21.02;100.00;97751.06;5027218;28;20025;-73
2023/08/10 10:50:19;;;;;;;0.65;0.35;;;;;;;21.12;100.00;97752.91;5026711;28;20026;-73
2023/08/10 10:53:04;;;;;;;0.20;0.20;;;;;;;20.84;100.00;97755.66;5028028;28;20044;-73
2023/08/10 10:55:35;;;;;;;0.20;0.20;;;;;;;21.19;100.00;97762.16;5026112;28;20355;-73
2023/08/10 10:58:02;;;;;;;0.35;0.30;;;;;;;20.84;100.00;97758.38;5028457;28;20040;-74
2023/08/10 11:00:31;;;;;;;0.55;0.43;;;;;;;20.97;100.00;97758.84;5010446;28;20408;-74
2023/08/10 11:03:00;;;;;;;0.68;0.32;;;;;;;20.99;100.00;97756.81;5025609;28;20036;-74
2023/08/10 11:05:25;;;;;;;0.20;0.20;;;;;;;20.96;100.00;97762.56;5027949;28;20131;-74
2023/08/10 11:07:52;;;;;;;0.20;0.20;;;;;;;20.98;100.00;97749.66;5032704;28;20089;-74
2023/08/10 11:10:20;;;;;;;0.38;0.25;;;;;;;21.07;100.00;97754.19;5028735;28;20040;-74
2023/08/10 11:12:48;;;;;;;1.02;0.47;;;;;;;21.11;100.00;97745.72;5026982;28;20113;-74
2023/08/10 11:15:14;;;;;;;1.23;0.45;;;;;;;21.01;100.00;97760.25;5027065;28;20064;-74
2023/08/10 11:17:41;;;;;;;0.13;0.13;;;;;;;20.92;100.00;97753.00;5029921;28;20046;-74
2023/08/10 11:20:10;;;;;;;0.13;0.13;;;;;;;20.39;100.00;97757.50;5030047;28;20524;-74
2023/08/10 11:22:38;;;;;;;0.35;0.35;;;;;;;20.36;100.00;97755.09;5046581;28;20093;-74
2023/08/10 11:25:11;;;;;;;0.32;0.32;;;;;;;20.65;100.00;97753.06;5039463;28;20501;-74